createdAt,value
2022-08-24T00:01:27.240Z,17.00
2022-08-24T00:03:57.823Z,16.80
2022-08-24T00:06:28.057Z,16.70
2022-08-24T00:08:58.818Z,16.60
2022-08-24T00:11:27.194Z,16.70
2022-08-24T00:13:54.749Z,16.70
2022-08-24T00:16:22.161Z,16.80
2022-08-24T00:18:50.331Z,16.80
2022-08-24T00:21:19.065Z,16.80
2022-08-24T00:23:46.719Z,16.80
2022-08-24T00:26:14.171Z,16.80
2022-08-24T00:28:41.799Z,16.70
2022-08-24T00:31:09.477Z,16.70
2022-08-24T00:33:36.404Z,16.60
2022-08-24T00:36:05.258Z,16.70
2022-08-24T00:38:35.474Z,16.50
2022-08-24T00:41:04.198Z,16.50
2022-08-24T00:43:31.532Z,16.40
2022-08-24T00:46:18.955Z,16.40
2022-08-24T00:48:54.566Z,16.40
2022-08-24T00:51:30.343Z,16.30
2022-08-24T00:54:07.640Z,16.30
2022-08-24T00:56:47.778Z,16.40
2022-08-24T00:59:27.801Z,16.50
2022-08-24T01:01:56.813Z,16.50
2022-08-24T01:04:36.107Z,16.50
2022-08-24T01:07:04.321Z,16.60
2022-08-24T01:09:31.118Z,16.70
2022-08-24T01:11:58.624Z,16.60
2022-08-24T01:14:26.179Z,16.70
2022-08-24T01:17:11.359Z,16.70
2022-08-24T01:19:50.687Z,16.80
2022-08-24T01:22:44.845Z,16.70
2022-08-24T01:25:12.041Z,16.70
2022-08-24T01:27:41.567Z,16.90
2022-08-24T01:30:14.128Z,16.80
2022-08-24T01:32:53.386Z,16.80
2022-08-24T01:35:20.558Z,16.90
2022-08-24T01:37:48.023Z,16.90
2022-08-24T01:40:15.585Z,17.00
2022-08-24T01:42:52.581Z,17.00
2022-08-24T01:45:20.691Z,17.00
2022-08-24T01:47:47.512Z,17.00
2022-08-24T01:50:16.733Z,17.10
2022-08-24T01:53:04.426Z,17.10
2022-08-24T01:55:32.121Z,17.20
2022-08-24T01:57:59.640Z,17.20
2022-08-24T02:00:27.694Z,17.20
2022-08-24T02:02:56.620Z,17.30
2022-08-24T02:05:24.926Z,17.30
2022-08-24T02:07:52.830Z,17.20
2022-08-24T02:10:20.586Z,17.30
2022-08-24T02:12:58.394Z,17.30
2022-08-24T02:15:39.916Z,17.30
2022-08-24T02:18:15.014Z,17.40
2022-08-24T02:20:42.820Z,17.50
2022-08-24T02:23:09.665Z,17.50
2022-08-24T02:25:37.054Z,17.50
2022-08-24T02:28:04.827Z,17.40
2022-08-24T02:30:32.476Z,17.50
2022-08-24T02:33:00.388Z,17.50
2022-08-24T02:35:29.718Z,17.50
2022-08-24T02:37:56.886Z,17.50
2022-08-24T02:40:24.490Z,17.50
2022-08-24T02:42:51.652Z,17.50
2022-08-24T02:45:18.610Z,17.50
2022-08-24T02:47:45.550Z,17.50
2022-08-24T02:50:15.438Z,17.50
2022-08-24T02:52:43.537Z,17.50
2022-08-24T02:55:16.207Z,17.60
2022-08-24T02:57:48.335Z,17.60
2022-08-24T03:00:19.296Z,17.70
2022-08-24T03:02:46.791Z,17.60
2022-08-24T03:05:15.302Z,17.60
2022-08-24T03:07:42.870Z,17.60
2022-08-24T03:10:10.698Z,17.70
2022-08-24T03:12:38.057Z,17.70
2022-08-24T03:15:09.851Z,17.80
2022-08-24T03:17:39.855Z,17.80
2022-08-24T03:20:14.187Z,17.80
2022-08-24T03:22:41.669Z,17.80
2022-08-24T03:25:10.193Z,17.80
2022-08-24T03:27:37.642Z,17.70
2022-08-24T03:30:07.318Z,17.70
2022-08-24T03:32:34.875Z,17.60
2022-08-24T03:35:02.529Z,17.50
2022-08-24T03:37:29.323Z,17.50
2022-08-24T03:39:56.256Z,17.50
2022-08-24T03:42:23.389Z,17.50
2022-08-24T03:44:51.203Z,17.50
2022-08-24T03:47:20.140Z,17.50
2022-08-24T03:49:46.955Z,17.50
2022-08-24T03:52:13.812Z,17.50
2022-08-24T03:54:40.674Z,17.50
2022-08-24T03:57:07.538Z,17.50
2022-08-24T03:59:34.460Z,17.30
2022-08-24T04:02:08.232Z,17.10
2022-08-24T04:04:37.079Z,17.00
2022-08-24T04:07:04.350Z,17.00
2022-08-24T04:09:31.671Z,17.10
2022-08-24T04:11:59.311Z,17.10
2022-08-24T04:14:27.907Z,17.10
2022-08-24T04:16:55.282Z,17.10
2022-08-24T04:19:24.936Z,17.00
2022-08-24T04:21:51.792Z,17.10
2022-08-24T04:24:20.334Z,17.20
2022-08-24T04:26:47.566Z,17.10
2022-08-24T04:29:17.211Z,17.10
2022-08-24T04:31:45.092Z,17.00
2022-08-24T04:34:13.932Z,17.00
2022-08-24T04:36:43.567Z,17.10
2022-08-24T04:39:10.691Z,17.20
2022-08-24T04:41:37.522Z,17.30
2022-08-24T04:44:05.977Z,17.40
2022-08-24T04:46:32.810Z,17.30
2022-08-24T04:48:59.592Z,17.40
2022-08-24T04:51:26.698Z,17.50
2022-08-24T04:53:56.153Z,17.50
2022-08-24T04:56:25.962Z,17.60
2022-08-24T04:58:55.462Z,17.70
2022-08-24T05:01:26.538Z,17.70
2022-08-24T05:03:55.760Z,17.80
2022-08-24T05:06:26.378Z,17.90
2022-08-24T05:08:54.025Z,17.90
2022-08-24T05:11:22.631Z,18.00
2022-08-24T05:13:52.804Z,18.00
2022-08-24T05:16:20.887Z,18.00
2022-08-24T05:18:48.445Z,18.20
2022-08-24T05:21:20.090Z,18.20
2022-08-24T05:23:48.663Z,18.20
2022-08-24T05:26:25.764Z,18.30
2022-08-24T05:29:01.766Z,18.30
2022-08-24T05:31:32.257Z,18.20
2022-08-24T05:34:01.089Z,18.30
2022-08-24T05:36:34.481Z,18.30
2022-08-24T05:39:11.305Z,18.30
2022-08-24T05:41:43.947Z,18.40
2022-08-24T05:44:17.122Z,18.60
2022-08-24T05:46:44.706Z,18.60
2022-08-24T05:49:12.386Z,18.60
2022-08-24T05:51:40.345Z,18.60
2022-08-24T05:54:07.311Z,18.70
2022-08-24T05:56:34.156Z,18.90
2022-08-24T05:59:01.259Z,18.80
2022-08-24T06:01:28.822Z,18.90
2022-08-24T06:03:58.915Z,18.90
2022-08-24T06:06:26.923Z,19.00
2022-08-24T06:08:57.002Z,19.00
2022-08-24T06:11:32.567Z,18.90
2022-08-24T06:14:07.954Z,18.90
2022-08-24T06:16:41.224Z,19.00
2022-08-24T06:19:11.656Z,19.10
2022-08-24T06:21:39.096Z,19.20
2022-08-24T06:24:06.672Z,19.30
2022-08-24T06:26:52.576Z,19.20
2022-08-24T06:29:21.256Z,19.30
2022-08-24T06:31:54.128Z,19.40
2022-08-24T06:34:24.006Z,19.50
2022-08-24T06:36:50.924Z,19.60
2022-08-24T06:39:18.590Z,19.80
2022-08-24T06:41:46.122Z,19.90
2022-08-24T06:44:12.915Z,19.80
2022-08-24T06:46:39.914Z,19.80
2022-08-24T06:49:07.931Z,19.90
2022-08-24T06:51:35.197Z,20.00
2022-08-24T06:54:02.133Z,20.20
2022-08-24T06:56:29.132Z,20.20
2022-08-24T06:58:56.004Z,20.20
2022-08-24T07:01:27.396Z,20.20
2022-08-24T07:03:54.677Z,20.30
2022-08-24T07:06:23.481Z,20.20
2022-08-24T07:08:51.310Z,20.30
2022-08-24T07:11:19.623Z,20.40
2022-08-24T07:13:47.954Z,20.50
2022-08-24T07:16:20.264Z,20.50
2022-08-24T07:18:49.855Z,20.60
2022-08-24T07:21:19.729Z,20.80
2022-08-24T07:23:48.226Z,20.90
2022-08-24T07:26:21.299Z,21.00
2022-08-24T07:28:50.681Z,21.10
2022-08-24T07:31:17.756Z,21.10
2022-08-24T07:33:45.075Z,21.20
2022-08-24T07:36:12.849Z,21.20
2022-08-24T07:38:52.203Z,21.30
2022-08-24T07:41:40.431Z,21.40
2022-08-24T07:44:08.472Z,21.40
2022-08-24T07:46:35.387Z,21.40
2022-08-24T07:49:11.578Z,21.50
2022-08-24T07:51:44.963Z,21.60
2022-08-24T07:54:15.009Z,21.70
2022-08-24T07:56:43.040Z,21.70
2022-08-24T07:59:13.285Z,21.70
2022-08-24T08:01:41.641Z,21.80
2022-08-24T08:04:09.391Z,22.00
2022-08-24T08:06:36.389Z,22.20
2022-08-24T08:09:05.175Z,22.40
2022-08-24T08:11:32.527Z,22.50
2022-08-24T08:13:59.706Z,22.80
2022-08-24T08:16:27.452Z,22.90
2022-08-24T08:19:09.310Z,23.20
2022-08-24T08:22:10.318Z,23.50
2022-08-24T08:24:44.379Z,23.70
2022-08-24T08:27:12.698Z,23.70
2022-08-24T08:29:40.867Z,23.80
2022-08-24T08:32:14.770Z,23.70
2022-08-24T08:34:41.650Z,23.80
2022-08-24T08:37:08.791Z,24.00
2022-08-24T08:39:36.269Z,23.80
2022-08-24T08:42:31.533Z,23.80
2022-08-24T08:45:18.436Z,24.00
2022-08-24T08:48:10.652Z,23.70
2022-08-24T08:51:23.167Z,23.70
2022-08-24T08:54:19.443Z,23.90
2022-08-24T08:57:18.870Z,23.80
2022-08-24T09:00:06.036Z,23.90
2022-08-24T09:02:38.809Z,24.10
2022-08-24T09:05:27.507Z,24.30
2022-08-24T09:08:20.147Z,24.40
2022-08-24T09:11:20.233Z,24.50
2022-08-24T09:14:44.012Z,24.60
2022-08-24T09:17:36.446Z,24.60
2022-08-24T09:20:28.943Z,24.70
2022-08-24T09:23:22.064Z,24.70
2022-08-24T09:26:22.312Z,24.70
2022-08-24T09:29:43.691Z,24.90
2022-08-24T09:32:35.645Z,24.90
2022-08-24T09:35:09.751Z,25.00
2022-08-24T09:38:00.812Z,25.20
2022-08-24T09:40:43.773Z,25.30
2022-08-24T09:43:19.621Z,25.30
2022-08-24T09:46:29.198Z,25.30
2022-08-24T09:49:26.675Z,25.60
2022-08-24T09:52:19.591Z,26.00
2022-08-24T09:55:33.485Z,25.90
2022-08-24T09:58:44.845Z,25.90
2022-08-24T10:01:44.166Z,26.20
2022-08-24T10:04:37.097Z,26.20
2022-08-24T10:07:42.144Z,26.10
2022-08-24T10:10:29.530Z,26.10
2022-08-24T10:13:05.414Z,26.00
2022-08-24T10:15:52.240Z,25.80
2022-08-24T10:19:04.878Z,26.00
2022-08-24T10:22:14.175Z,26.10
2022-08-24T10:24:59.522Z,25.80
2022-08-24T10:28:01.350Z,25.90
2022-08-24T10:31:02.026Z,25.80
2022-08-24T10:33:59.901Z,26.10
2022-08-24T10:37:00.312Z,26.20
2022-08-24T10:40:19.593Z,26.20
2022-08-24T10:43:33.840Z,26.20
2022-08-24T10:46:19.010Z,26.00
2022-08-24T10:49:06.882Z,26.20
2022-08-24T10:52:08.074Z,26.50
2022-08-24T10:54:36.774Z,26.40
2022-08-24T10:57:15.163Z,26.10
2022-08-24T11:00:07.195Z,26.20
2022-08-24T11:02:39.911Z,26.00
2022-08-24T11:05:17.806Z,25.90
2022-08-24T11:08:20.732Z,25.60
2022-08-24T11:11:33.412Z,25.60
2022-08-24T11:14:31.889Z,25.80
2022-08-24T11:17:32.656Z,25.90
2022-08-24T11:19:59.554Z,26.00
2022-08-24T11:23:04.983Z,25.90
2022-08-24T11:25:37.807Z,25.90
2022-08-24T11:28:29.796Z,26.00
2022-08-24T11:30:57.009Z,26.10
2022-08-24T11:33:30.656Z,25.90
2022-08-24T11:36:00.286Z,25.80
2022-08-24T11:38:32.342Z,25.70
2022-08-24T11:41:16.807Z,25.60
2022-08-24T11:44:05.862Z,25.90
2022-08-24T11:46:40.881Z,26.10
2022-08-24T11:49:49.178Z,26.10
2022-08-24T11:52:34.459Z,26.10
2022-08-24T11:55:46.789Z,26.20
2022-08-24T11:58:37.960Z,26.40
2022-08-24T12:01:25.072Z,26.60
2022-08-24T12:04:03.865Z,26.60
2022-08-24T12:07:25.635Z,26.70
2022-08-24T12:10:16.445Z,26.70
2022-08-24T12:13:04.456Z,26.80
2022-08-24T12:15:38.657Z,26.60
2022-08-24T12:18:39.198Z,26.70
2022-08-24T12:21:12.603Z,26.70
2022-08-24T12:23:48.833Z,26.70
2022-08-24T12:26:24.433Z,26.80
2022-08-24T12:29:01.343Z,26.90
2022-08-24T12:31:56.442Z,27.20
2022-08-24T12:34:50.044Z,27.10
2022-08-24T12:37:52.237Z,27.40
2022-08-24T12:40:51.858Z,27.70
2022-08-24T12:43:29.733Z,27.60
2022-08-24T12:46:01.256Z,27.60
2022-08-24T12:49:01.613Z,27.50
2022-08-24T12:52:10.046Z,27.70
2022-08-24T12:54:48.143Z,27.90
2022-08-24T12:57:33.546Z,27.90
2022-08-24T13:00:27.289Z,27.90
2022-08-24T13:03:02.651Z,27.80
2022-08-24T13:05:48.546Z,27.80
2022-08-24T13:08:34.348Z,28.10
2022-08-24T13:11:13.757Z,27.80
2022-08-24T13:14:24.969Z,27.70
2022-08-24T13:16:57.763Z,27.60
2022-08-24T13:19:30.281Z,27.30
2022-08-24T13:22:10.167Z,27.10
2022-08-24T13:24:38.511Z,27.00
2022-08-24T13:27:15.736Z,26.80
2022-08-24T13:30:06.622Z,26.80
2022-08-24T13:32:44.140Z,26.80
2022-08-24T13:35:54.787Z,27.00
2022-08-24T13:38:38.890Z,26.90
2022-08-24T13:41:09.009Z,27.00
2022-08-24T13:43:55.784Z,27.20
2022-08-24T13:47:04.758Z,27.50
2022-08-24T13:50:14.594Z,27.30
2022-08-24T13:53:17.853Z,27.10
2022-08-24T13:55:50.889Z,27.20
2022-08-24T13:58:49.233Z,27.10
2022-08-24T14:01:47.438Z,27.10
2022-08-24T14:04:26.624Z,26.80
2022-08-24T14:07:08.472Z,27.00
2022-08-24T14:10:31.878Z,27.10
2022-08-24T14:13:29.142Z,27.20
2022-08-24T14:16:21.877Z,27.10
2022-08-24T14:18:57.350Z,27.10
2022-08-24T14:21:41.190Z,27.20
2022-08-24T14:24:31.743Z,27.50
2022-08-24T14:27:08.094Z,27.40
2022-08-24T14:29:40.534Z,27.00
2022-08-24T14:32:12.203Z,26.80
2022-08-24T14:35:18.605Z,26.60
2022-08-24T14:38:10.570Z,26.50
2022-08-24T14:41:20.462Z,26.40
2022-08-24T14:44:03.864Z,26.40
2022-08-24T14:47:08.237Z,26.50
2022-08-24T14:49:53.987Z,26.60
2022-08-24T14:52:38.918Z,26.70
2022-08-24T14:55:31.223Z,27.10
2022-08-24T14:58:00.852Z,27.10
2022-08-24T15:00:53.235Z,26.90
2022-08-24T15:03:44.389Z,26.80
2022-08-24T15:06:28.152Z,26.70
2022-08-24T15:09:13.658Z,26.70
2022-08-24T15:11:41.807Z,26.80
2022-08-24T15:14:54.306Z,27.00
2022-08-24T15:17:35.394Z,27.00
2022-08-24T15:20:20.285Z,26.90
2022-08-24T15:23:02.509Z,26.90
2022-08-24T15:26:01.278Z,26.90
2022-08-24T15:28:33.053Z,26.70
2022-08-24T15:31:19.970Z,26.70
2022-08-24T15:33:57.722Z,26.70
2022-08-24T15:36:26.082Z,26.60
2022-08-24T15:38:52.887Z,26.40
2022-08-24T15:41:32.704Z,26.20
2022-08-24T15:44:08.738Z,26.00
2022-08-24T15:47:05.745Z,26.00
2022-08-24T15:49:52.492Z,25.90
2022-08-24T15:53:11.519Z,25.70
2022-08-24T15:55:43.053Z,25.60
2022-08-24T15:58:34.818Z,25.50
2022-08-24T16:01:40.910Z,25.30
2022-08-24T16:04:15.162Z,25.40
2022-08-24T16:06:48.158Z,25.40
2022-08-24T16:09:35.005Z,25.30
2022-08-24T16:12:05.633Z,25.30
2022-08-24T16:14:46.910Z,25.30
2022-08-24T16:17:40.226Z,25.30
2022-08-24T16:20:22.895Z,25.40
2022-08-24T16:23:00.731Z,25.50
2022-08-24T16:25:31.584Z,25.40
2022-08-24T16:28:11.889Z,25.40
2022-08-24T16:30:54.638Z,25.40
2022-08-24T16:33:39.890Z,25.30
2022-08-24T16:36:18.303Z,25.20
2022-08-24T16:38:49.315Z,25.20
2022-08-24T16:41:21.143Z,25.20
2022-08-24T16:43:48.931Z,25.10
2022-08-24T16:46:22.023Z,25.10
2022-08-24T16:48:49.657Z,25.10
2022-08-24T16:51:16.483Z,24.90
2022-08-24T16:53:43.712Z,24.90
2022-08-24T16:56:13.650Z,24.90
2022-08-24T16:58:43.457Z,24.80
2022-08-24T17:01:10.388Z,24.60
2022-08-24T17:03:37.281Z,24.60
2022-08-24T17:06:04.339Z,24.40
2022-08-24T17:08:31.293Z,24.30
2022-08-24T17:10:58.122Z,24.30
2022-08-24T17:13:48.244Z,24.20
2022-08-24T17:16:12.844Z,24.20
2022-08-24T17:18:41.454Z,24.10
2022-08-24T17:21:08.834Z,24.00
2022-08-24T17:23:36.545Z,24.00
2022-08-24T17:26:12.006Z,23.90
2022-08-24T17:28:48.902Z,24.00
2022-08-24T17:31:16.101Z,23.90
2022-08-24T17:33:43.329Z,23.90
2022-08-24T17:36:15.650Z,23.80
2022-08-24T17:38:55.345Z,23.70
2022-08-24T17:41:25.438Z,23.60
2022-08-24T17:43:53.705Z,23.60
2022-08-24T17:46:21.437Z,23.50
2022-08-24T17:48:48.901Z,23.40
2022-08-24T17:51:16.160Z,23.30
2022-08-24T17:53:43.170Z,23.30
2022-08-24T17:56:13.254Z,23.20
2022-08-24T17:58:59.942Z,23.10
2022-08-24T18:01:27.410Z,23.10
2022-08-24T18:03:54.789Z,23.00
2022-08-24T18:06:24.002Z,23.00
2022-08-24T18:08:52.729Z,22.80
2022-08-24T18:11:22.757Z,22.70
2022-08-24T18:13:54.458Z,22.70
2022-08-24T18:16:24.941Z,22.60
2022-08-24T18:18:53.486Z,22.50
2022-08-24T18:21:21.429Z,22.50
2022-08-24T18:23:50.276Z,22.40
2022-08-24T18:26:27.772Z,22.40
2022-08-24T18:29:00.244Z,22.40
2022-08-24T18:31:28.926Z,22.30
2022-08-24T18:33:55.842Z,22.20
2022-08-24T18:36:22.745Z,22.00
2022-08-24T18:38:49.625Z,22.00
2022-08-24T18:41:17.202Z,21.90
2022-08-24T18:43:44.118Z,21.90
2022-08-24T18:46:11.084Z,21.90
2022-08-24T18:48:38.203Z,21.80
2022-08-24T18:51:05.471Z,21.80
2022-08-24T18:53:35.510Z,21.80
2022-08-24T18:56:09.260Z,21.70
2022-08-24T18:58:38.965Z,21.70
2022-08-24T19:01:06.752Z,21.60
2022-08-24T19:03:34.440Z,21.60
2022-08-24T19:06:01.557Z,21.60
2022-08-24T19:08:28.527Z,21.50
2022-08-24T19:10:56.165Z,21.50
2022-08-24T19:13:23.059Z,21.40
2022-08-24T19:15:51.010Z,21.40
2022-08-24T19:18:21.243Z,21.30
2022-08-24T19:20:52.949Z,21.20
2022-08-24T19:23:30.084Z,21.10
2022-08-24T19:25:58.535Z,21.10
2022-08-24T19:28:26.353Z,21.10
2022-08-24T19:31:03.298Z,21.00
2022-08-24T19:33:38.175Z,21.00
2022-08-24T19:36:05.659Z,20.90
2022-08-24T19:38:32.707Z,21.00
2022-08-24T19:41:00.740Z,21.00
2022-08-24T19:43:29.548Z,21.00
2022-08-24T19:46:08.479Z,21.00
2022-08-24T19:48:39.608Z,20.90
2022-08-24T19:51:09.842Z,20.90
2022-08-24T19:53:38.273Z,20.80
2022-08-24T19:56:06.973Z,20.80
2022-08-24T19:59:06.884Z,20.80
2022-08-24T20:01:37.273Z,20.80
2022-08-24T20:04:07.960Z,20.80
2022-08-24T20:06:37.211Z,20.80
2022-08-24T20:09:05.341Z,20.80
2022-08-24T20:11:32.524Z,20.70
2022-08-24T20:13:59.401Z,20.70
2022-08-24T20:16:32.090Z,20.80
2022-08-24T20:19:00.619Z,20.70
2022-08-24T20:21:30.058Z,20.60
2022-08-24T20:24:00.550Z,20.60
2022-08-24T20:26:32.794Z,20.60
2022-08-24T20:28:59.765Z,20.60
2022-08-24T20:31:28.641Z,20.60
2022-08-24T20:33:57.091Z,20.50
2022-08-24T20:36:24.885Z,20.50
2022-08-24T20:38:53.189Z,20.40
2022-08-24T20:41:20.343Z,20.40
2022-08-24T20:43:48.279Z,20.40
2022-08-24T20:46:15.876Z,20.30
2022-08-24T20:48:43.371Z,20.20
2022-08-24T20:51:10.620Z,20.10
2022-08-24T20:53:37.788Z,20.00
2022-08-24T20:56:11.691Z,19.90
2022-08-24T20:58:41.868Z,19.90
2022-08-24T21:01:09.203Z,20.00
2022-08-24T21:03:36.959Z,20.00
2022-08-24T21:06:04.937Z,20.00
2022-08-24T21:08:32.408Z,19.90
2022-08-24T21:10:59.471Z,19.90
2022-08-24T21:13:26.406Z,19.90
2022-08-24T21:15:53.425Z,19.80
2022-08-24T21:18:20.758Z,19.80
2022-08-24T21:21:03.267Z,19.80
2022-08-24T21:23:32.179Z,19.60
2022-08-24T21:26:02.291Z,19.60
2022-08-24T21:28:29.969Z,19.60
2022-08-24T21:30:56.912Z,19.60
2022-08-24T21:33:42.203Z,19.50
2022-08-24T21:36:09.141Z,19.50
2022-08-24T21:38:36.457Z,19.40
2022-08-24T21:41:06.234Z,19.40
2022-08-24T21:43:33.650Z,19.30
2022-08-24T21:46:00.769Z,19.40
2022-08-24T21:48:27.626Z,19.30
2022-08-24T21:50:54.434Z,19.20
2022-08-24T21:53:21.284Z,19.20
2022-08-24T21:55:55.012Z,19.20
2022-08-24T21:58:23.931Z,19.20
2022-08-24T22:00:51.722Z,19.20
2022-08-24T22:03:19.441Z,19.20
2022-08-24T22:05:46.323Z,19.00
2022-08-24T22:08:13.145Z,19.00
2022-08-24T22:10:40.094Z,19.00
2022-08-24T22:13:07.270Z,19.00
2022-08-24T22:15:34.394Z,19.00
2022-08-24T22:18:01.482Z,18.90
2022-08-24T22:20:28.478Z,18.90
2022-08-24T22:22:56.625Z,18.90
2022-08-24T22:25:23.622Z,18.80
2022-08-24T22:27:50.422Z,18.80
2022-08-24T22:30:18.601Z,18.80
2022-08-24T22:32:46.711Z,18.70
2022-08-24T22:35:14.332Z,18.70
2022-08-24T22:37:41.849Z,18.50
2022-08-24T22:40:12.744Z,18.50
2022-08-24T22:42:40.295Z,18.40
2022-08-24T22:45:09.719Z,18.60
2022-08-24T22:47:37.235Z,18.60
2022-08-24T22:50:06.623Z,18.50
2022-08-24T22:52:34.147Z,18.50
2022-08-24T22:55:01.086Z,18.50
2022-08-24T22:57:28.220Z,18.40
2022-08-24T22:59:57.869Z,18.40
2022-08-24T23:02:25.155Z,18.40
2022-08-24T23:04:53.337Z,18.40
2022-08-24T23:07:21.006Z,18.30
2022-08-24T23:09:48.205Z,18.30
2022-08-24T23:12:22.380Z,18.30
2022-08-24T23:14:51.624Z,18.30
2022-08-24T23:17:20.188Z,18.30
2022-08-24T23:20:06.617Z,18.30
2022-08-24T23:22:42.293Z,18.30
2022-08-24T23:25:12.816Z,18.30
2022-08-24T23:27:40.918Z,18.20
2022-08-24T23:30:12.206Z,18.20
2022-08-24T23:32:40.046Z,18.20
2022-08-24T23:35:07.578Z,18.10
2022-08-24T23:37:34.496Z,18.10
2022-08-24T23:40:01.469Z,18.10
2022-08-24T23:42:28.461Z,18.10
2022-08-24T23:44:55.285Z,18.10
2022-08-24T23:47:22.153Z,18.00
2022-08-24T23:49:49.010Z,18.00
2022-08-24T23:52:28.610Z,18.00
2022-08-24T23:55:06.961Z,18.00
2022-08-24T23:57:46.071Z,17.90
